createdAt,value
2022-11-21T00:01:49.086Z,93.74
2022-11-21T00:03:52.533Z,94.31
2022-11-21T00:05:55.616Z,93.72
2022-11-21T00:07:59.132Z,93.44
2022-11-21T00:10:02.134Z,92.84
2022-11-21T00:12:05.526Z,93.03
2022-11-21T00:14:08.660Z,93.64
2022-11-21T00:16:15.086Z,94.55
2022-11-21T00:18:18.110Z,93.10
2022-11-21T00:20:22.517Z,94.30
2022-11-21T00:22:25.517Z,94.65
2022-11-21T00:24:28.724Z,95.14
2022-11-21T00:26:31.919Z,93.54
2022-11-21T00:28:35.211Z,95.11
2022-11-21T00:30:38.229Z,94.53
2022-11-21T00:32:42.686Z,95.76
2022-11-21T00:34:45.669Z,95.36
2022-11-21T00:36:48.713Z,96.08
2022-11-21T00:38:52.229Z,96.06
2022-11-21T00:40:55.174Z,96.82
2022-11-21T00:42:58.382Z,95.61
2022-11-21T00:45:01.373Z,95.67
2022-11-21T00:47:04.515Z,97.30
2022-11-21T00:49:08.874Z,97.41
2022-11-21T00:51:11.834Z,97.53
2022-11-21T00:53:14.789Z,97.63
2022-11-21T00:55:17.882Z,97.86
2022-11-21T00:57:20.860Z,97.66
2022-11-21T00:59:23.872Z,97.60
2022-11-21T01:01:26.905Z,98.39
2022-11-21T01:03:29.984Z,99.27
2022-11-21T01:05:34.583Z,98.69
2022-11-21T01:07:37.648Z,98.83
2022-11-21T01:09:40.753Z,98.77
2022-11-21T01:11:43.709Z,98.27
2022-11-21T01:13:47.301Z,97.73
2022-11-21T01:15:50.403Z,98.52
2022-11-21T01:17:53.433Z,98.76
2022-11-21T01:19:56.399Z,98.26
2022-11-21T01:22:00.786Z,98.09
2022-11-21T01:24:03.899Z,98.65
2022-11-21T01:26:08.792Z,98.16
2022-11-21T01:28:11.799Z,98.31
2022-11-21T01:30:15.693Z,98.37
2022-11-21T01:32:18.630Z,97.91
2022-11-21T01:34:21.647Z,97.32
2022-11-21T01:36:26.078Z,97.55
2022-11-21T01:38:30.498Z,96.29
2022-11-21T01:40:39.151Z,96.93
2022-11-21T01:42:54.792Z,96.40
2022-11-21T01:44:57.782Z,96.01
2022-11-21T01:47:00.774Z,96.33
2022-11-21T01:49:06.214Z,95.57
2022-11-21T01:51:12.140Z,96.40
2022-11-21T01:53:15.313Z,96.17
2022-11-21T01:55:20.054Z,96.65
2022-11-21T01:57:25.121Z,97.11
2022-11-21T01:59:30.586Z,98.68
2022-11-21T02:01:35.787Z,99.78
2022-11-21T02:03:39.603Z,99.40
2022-11-21T02:05:42.648Z,100.00
2022-11-21T02:07:47.450Z,100.00
2022-11-21T02:09:53.609Z,100.00
2022-11-21T02:12:01.837Z,100.00
2022-11-21T02:14:04.830Z,100.00
2022-11-21T02:16:08.426Z,100.00
2022-11-21T02:18:11.530Z,100.00
2022-11-21T02:20:16.402Z,100.00
2022-11-21T02:22:26.995Z,100.00
2022-11-21T02:24:34.965Z,100.00
2022-11-21T02:26:39.471Z,100.00
2022-11-21T02:28:45.033Z,100.00
2022-11-21T02:30:48.080Z,100.00
2022-11-21T02:32:51.097Z,100.00
2022-11-21T02:34:54.055Z,100.00
2022-11-21T02:36:57.375Z,100.00
2022-11-21T02:39:00.395Z,100.00
2022-11-21T02:41:08.786Z,100.00
2022-11-21T02:43:16.108Z,100.00
2022-11-21T02:45:22.629Z,100.00
2022-11-21T02:47:25.735Z,100.00
2022-11-21T02:49:36.039Z,100.00
2022-11-21T02:51:39.012Z,100.00
2022-11-21T02:53:42.074Z,100.00
2022-11-21T02:55:45.842Z,100.00
2022-11-21T02:57:48.896Z,100.00
2022-11-21T02:59:53.454Z,100.00
2022-11-21T03:01:59.665Z,100.00
2022-11-21T03:04:02.725Z,100.00
2022-11-21T03:06:05.837Z,100.00
2022-11-21T03:08:08.924Z,100.00
2022-11-21T03:10:12.394Z,100.00
2022-11-21T03:12:15.296Z,100.00
2022-11-21T03:14:18.255Z,100.00
2022-11-21T03:16:22.917Z,100.00
2022-11-21T03:18:25.980Z,100.00
2022-11-21T03:20:29.220Z,100.00
2022-11-21T03:22:32.291Z,100.00
2022-11-21T03:24:35.365Z,100.00
2022-11-21T03:26:38.476Z,100.00
2022-11-21T03:28:42.811Z,100.00
2022-11-21T03:30:45.782Z,100.00
2022-11-21T03:32:50.386Z,100.00
2022-11-21T03:34:53.582Z,100.00
2022-11-21T03:36:56.544Z,100.00
2022-11-21T03:38:59.607Z,100.00
2022-11-21T03:41:05.441Z,100.00
2022-11-21T03:43:08.578Z,100.00
2022-11-21T03:45:11.999Z,100.00
2022-11-21T03:47:14.956Z,100.00
2022-11-21T03:49:19.334Z,100.00
2022-11-21T03:51:22.697Z,100.00
2022-11-21T03:53:25.654Z,100.00
2022-11-21T03:55:28.730Z,100.00
2022-11-21T03:57:31.741Z,100.00
2022-11-21T03:59:34.774Z,100.00
2022-11-21T04:01:37.770Z,100.00
2022-11-21T04:03:41.486Z,100.00
2022-11-21T04:05:46.752Z,100.00
2022-11-21T04:07:49.727Z,100.00
2022-11-21T04:09:52.687Z,99.54
2022-11-21T04:11:55.665Z,99.18
2022-11-21T04:13:58.632Z,98.44
2022-11-21T04:16:01.671Z,99.80
2022-11-21T04:18:04.998Z,98.38
2022-11-21T04:20:09.112Z,98.53
2022-11-21T04:22:13.451Z,98.38
2022-11-21T04:24:16.487Z,99.28
2022-11-21T04:26:19.505Z,98.67
2022-11-21T04:28:22.917Z,99.26
2022-11-21T04:30:25.947Z,97.63
2022-11-21T04:32:28.941Z,98.55
2022-11-21T04:34:31.901Z,98.12
2022-11-21T04:36:34.974Z,97.62
2022-11-21T04:38:39.502Z,98.19
2022-11-21T04:40:44.214Z,98.03
2022-11-21T04:42:48.483Z,98.41
2022-11-21T04:44:51.530Z,98.05
2022-11-21T04:46:54.518Z,97.06
2022-11-21T04:48:57.496Z,98.01
2022-11-21T04:51:03.122Z,97.80
2022-11-21T04:53:06.157Z,97.99
2022-11-21T04:55:11.221Z,98.03
2022-11-21T04:57:14.403Z,98.05
2022-11-21T04:59:17.386Z,99.70
2022-11-21T05:01:20.584Z,99.56
2022-11-21T05:03:23.574Z,98.78
2022-11-21T05:05:26.618Z,99.47
2022-11-21T05:07:29.618Z,99.58
2022-11-21T05:09:32.632Z,99.97
2022-11-21T05:11:54.713Z,99.88
2022-11-21T05:13:57.711Z,100.00
2022-11-21T05:16:00.658Z,100.00
2022-11-21T05:18:03.607Z,100.00
2022-11-21T05:20:08.042Z,100.00
2022-11-21T05:22:11.066Z,100.00
2022-11-21T05:24:14.002Z,100.00
2022-11-21T05:26:16.993Z,100.00
2022-11-21T05:28:21.446Z,100.00
2022-11-21T05:30:24.421Z,100.00
2022-11-21T05:32:27.403Z,100.00
2022-11-21T05:34:30.804Z,100.00
2022-11-21T05:36:34.088Z,100.00
2022-11-21T05:38:37.194Z,100.00
2022-11-21T05:40:40.278Z,100.00
2022-11-21T05:43:01.097Z,100.00
2022-11-21T05:45:05.903Z,100.00
2022-11-21T05:47:09.017Z,100.00
2022-11-21T05:49:12.270Z,100.00
2022-11-21T05:51:16.049Z,100.00
2022-11-21T05:53:19.681Z,100.00
2022-11-21T05:55:22.721Z,100.00
2022-11-21T05:57:25.850Z,100.00
2022-11-21T05:59:28.874Z,100.00
2022-11-21T06:01:47.143Z,100.00
2022-11-21T06:03:50.153Z,100.00
2022-11-21T06:05:53.099Z,100.00
2022-11-21T06:07:56.129Z,100.00
2022-11-21T06:09:59.105Z,100.00
2022-11-21T06:12:02.322Z,100.00
2022-11-21T06:14:05.284Z,100.00
2022-11-21T06:16:09.740Z,100.00
2022-11-21T06:18:14.165Z,100.00
2022-11-21T06:20:17.274Z,100.00
2022-11-21T06:22:20.213Z,100.00
2022-11-21T06:24:23.285Z,100.00
2022-11-21T06:26:27.586Z,100.00
2022-11-21T06:28:33.539Z,100.00
2022-11-21T06:30:36.883Z,100.00
2022-11-21T06:32:39.911Z,100.00
2022-11-21T06:34:44.318Z,100.00
2022-11-21T06:36:47.455Z,100.00
2022-11-21T06:38:50.696Z,100.00
2022-11-21T06:40:53.753Z,100.00
2022-11-21T06:42:57.697Z,100.00
2022-11-21T06:45:00.834Z,100.00
2022-11-21T06:47:03.832Z,100.00
2022-11-21T06:49:06.988Z,100.00
2022-11-21T06:51:14.308Z,100.00
2022-11-21T06:53:17.364Z,100.00
2022-11-21T06:55:21.378Z,100.00
2022-11-21T06:57:24.349Z,100.00
2022-11-21T06:59:27.460Z,100.00
2022-11-21T07:01:30.553Z,100.00
2022-11-21T07:03:33.661Z,99.90
2022-11-21T07:05:36.856Z,100.00
2022-11-21T07:07:41.521Z,99.91
2022-11-21T07:09:47.445Z,100.00
2022-11-21T07:11:50.796Z,100.00
2022-11-21T07:13:53.011Z,99.60
2022-11-21T07:15:57.718Z,99.63
2022-11-21T07:18:00.768Z,100.00
2022-11-21T07:20:03.948Z,99.56
2022-11-21T07:22:08.379Z,100.00
2022-11-21T07:24:13.430Z,100.00
2022-11-21T07:26:16.419Z,100.00
2022-11-21T07:28:19.427Z,100.00
2022-11-21T07:30:22.394Z,100.00
2022-11-21T07:32:26.127Z,100.00
2022-11-21T07:34:29.291Z,99.73
2022-11-21T07:36:32.779Z,100.00
2022-11-21T07:38:35.757Z,99.99
2022-11-21T07:40:40.092Z,100.00
2022-11-21T07:42:43.101Z,100.00
2022-11-21T07:44:46.483Z,98.87
2022-11-21T07:46:49.501Z,99.04
2022-11-21T07:48:52.468Z,100.00
2022-11-21T07:50:55.543Z,100.00
2022-11-21T07:52:59.301Z,99.30
2022-11-21T07:55:02.591Z,98.70
2022-11-21T07:57:07.140Z,99.23
2022-11-21T07:59:10.185Z,98.91
2022-11-21T08:01:13.372Z,98.04
2022-11-21T08:03:16.560Z,97.89
2022-11-21T08:05:19.900Z,98.14
2022-11-21T08:07:23.979Z,99.23
2022-11-21T08:09:29.880Z,98.38
2022-11-21T08:11:33.054Z,97.99
2022-11-21T08:13:37.529Z,97.47
2022-11-21T08:15:40.570Z,97.81
2022-11-21T08:17:44.261Z,98.44
2022-11-21T08:19:47.261Z,96.62
2022-11-21T08:21:50.394Z,97.37
2022-11-21T08:23:53.413Z,97.36
2022-11-21T08:25:56.452Z,98.33
2022-11-21T08:27:59.927Z,97.06
2022-11-21T08:30:05.998Z,96.38
2022-11-21T08:32:09.064Z,97.58
2022-11-21T08:34:14.613Z,97.61
2022-11-21T08:36:17.817Z,97.66
2022-11-21T08:38:20.957Z,95.68
2022-11-21T08:40:24.120Z,96.84
2022-11-21T08:42:26.161Z,96.32
2022-11-21T08:44:30.033Z,95.85
2022-11-21T08:46:37.464Z,97.49
2022-11-21T08:48:40.504Z,96.36
2022-11-21T08:50:43.635Z,97.64
2022-11-21T08:52:46.714Z,97.42
2022-11-21T08:54:50.112Z,96.20
2022-11-21T08:56:53.325Z,96.33
2022-11-21T08:58:57.092Z,97.60
2022-11-21T09:01:00.598Z,96.39
2022-11-21T09:03:06.685Z,96.80
2022-11-21T09:05:10.633Z,98.13
2022-11-21T09:07:13.870Z,97.88
2022-11-21T09:09:20.752Z,96.89
2022-11-21T09:11:28.092Z,96.39
2022-11-21T09:13:31.150Z,97.15
2022-11-21T09:15:51.498Z,97.13
2022-11-21T09:18:06.632Z,94.94
2022-11-21T09:20:11.556Z,95.93
2022-11-21T09:22:14.774Z,97.00
2022-11-21T09:24:18.016Z,95.31
2022-11-21T09:26:21.009Z,95.40
2022-11-21T09:28:24.750Z,96.51
2022-11-21T09:30:27.962Z,96.51
2022-11-21T09:32:31.834Z,96.00
2022-11-21T09:34:34.919Z,96.33
2022-11-21T09:36:39.337Z,96.04
2022-11-21T09:38:42.475Z,96.25
2022-11-21T09:40:47.653Z,96.32
2022-11-21T09:43:14.906Z,95.29
2022-11-21T09:45:20.950Z,95.47
2022-11-21T09:47:26.175Z,95.47
2022-11-21T09:49:30.144Z,94.03
2022-11-21T09:51:33.497Z,93.07
2022-11-21T09:53:40.066Z,91.35
2022-11-21T09:55:47.111Z,92.53
2022-11-21T09:57:51.157Z,92.34
2022-11-21T09:59:55.082Z,92.79
2022-11-21T10:01:58.538Z,92.18
2022-11-21T10:04:03.153Z,92.21
2022-11-21T10:06:15.429Z,92.83
2022-11-21T10:08:29.203Z,91.81
2022-11-21T10:10:43.707Z,92.32
2022-11-21T10:13:07.980Z,92.99
2022-11-21T10:15:26.685Z,91.21
2022-11-21T10:17:35.420Z,91.88
2022-11-21T10:19:53.212Z,91.70
2022-11-21T10:22:19.740Z,90.81
2022-11-21T10:24:40.611Z,91.45
2022-11-21T10:26:51.506Z,91.12
2022-11-21T10:28:59.615Z,91.37
2022-11-21T10:31:04.548Z,91.40
2022-11-21T10:33:14.235Z,91.60
2022-11-21T10:35:20.488Z,90.06
2022-11-21T10:37:32.587Z,91.10
2022-11-21T10:39:39.302Z,91.15
2022-11-21T10:41:51.305Z,91.60
2022-11-21T10:44:17.720Z,91.93
2022-11-21T10:46:20.796Z,91.55
2022-11-21T10:48:23.862Z,91.34
2022-11-21T10:50:35.315Z,91.30
2022-11-21T10:52:45.361Z,90.35
2022-11-21T10:55:04.980Z,89.93
2022-11-21T10:57:14.545Z,86.96
2022-11-21T10:59:30.059Z,87.59
2022-11-21T11:01:35.768Z,87.64
2022-11-21T11:03:38.748Z,87.39
2022-11-21T11:05:43.841Z,88.46
2022-11-21T11:08:01.463Z,88.35
2022-11-21T11:10:16.475Z,87.73
2022-11-21T11:12:48.799Z,87.43
2022-11-21T11:14:54.478Z,87.63
2022-11-21T11:16:57.594Z,87.71
2022-11-21T11:19:01.827Z,87.16
2022-11-21T11:21:15.000Z,87.94
2022-11-21T11:23:28.532Z,88.88
2022-11-21T11:25:36.868Z,87.77
2022-11-21T11:27:41.312Z,88.54
2022-11-21T11:29:52.992Z,88.76
2022-11-21T11:31:58.226Z,89.38
2022-11-21T11:34:01.221Z,89.16
2022-11-21T11:36:15.356Z,90.20
2022-11-21T11:38:18.925Z,91.51
2022-11-21T11:40:27.220Z,92.08
2022-11-21T11:43:10.970Z,93.31
2022-11-21T11:45:35.625Z,94.81
2022-11-21T11:47:50.472Z,95.67
2022-11-21T11:50:13.496Z,94.63
2022-11-21T11:52:17.034Z,93.55
2022-11-21T11:54:22.134Z,93.70
2022-11-21T11:56:28.151Z,93.98
2022-11-21T11:58:38.108Z,94.31
2022-11-21T12:00:43.449Z,93.61
2022-11-21T12:02:51.694Z,93.38
2022-11-21T12:04:58.582Z,92.58
2022-11-21T12:09:39.161Z,91.76
2022-11-21T12:12:08.913Z,91.41
2022-11-21T12:15:09.081Z,91.52
2022-11-21T12:17:15.259Z,91.70
2022-11-21T12:19:18.788Z,91.67
2022-11-21T12:21:23.466Z,91.48
2022-11-21T12:23:29.305Z,91.41
2022-11-21T12:25:34.995Z,90.61
2022-11-21T12:27:38.382Z,90.25
2022-11-21T12:29:56.736Z,89.66
2022-11-21T12:32:11.143Z,88.87
2022-11-21T12:34:27.917Z,89.06
2022-11-21T12:36:36.251Z,88.71
2022-11-21T12:39:10.211Z,88.44
2022-11-21T12:41:34.236Z,89.19
2022-11-21T12:43:42.604Z,89.23
2022-11-21T12:45:51.265Z,89.24
2022-11-21T12:48:35.747Z,88.20
2022-11-21T12:51:04.149Z,87.80
2022-11-21T12:53:39.115Z,86.64
2022-11-21T12:55:42.923Z,87.78
2022-11-21T12:58:08.395Z,87.20
2022-11-21T13:00:17.252Z,88.73
2022-11-21T13:02:28.101Z,89.89
2022-11-21T13:04:34.473Z,89.70
2022-11-21T13:06:41.611Z,88.91
2022-11-21T13:08:45.462Z,88.96
2022-11-21T13:11:13.262Z,87.68
2022-11-21T13:13:20.763Z,87.42
2022-11-21T13:15:27.732Z,87.57
2022-11-21T13:17:41.668Z,87.57
2022-11-21T13:19:50.966Z,87.90
2022-11-21T13:21:55.446Z,87.47
2022-11-21T13:23:58.601Z,87.73
2022-11-21T13:26:01.681Z,86.81
2022-11-21T13:28:33.400Z,87.00
2022-11-21T13:30:36.489Z,86.70
2022-11-21T13:32:39.808Z,86.48
2022-11-21T13:34:42.909Z,87.39
2022-11-21T13:36:48.117Z,87.35
2022-11-21T13:39:33.101Z,86.23
2022-11-21T13:42:20.782Z,87.06
2022-11-21T13:44:31.187Z,87.18
2022-11-21T13:46:58.897Z,88.10
2022-11-21T13:49:06.697Z,88.12
2022-11-21T13:51:19.688Z,87.50
2022-11-21T13:53:39.778Z,88.18
2022-11-21T13:55:56.436Z,88.58
2022-11-21T13:58:08.338Z,88.96
2022-11-21T14:00:29.356Z,88.59
2022-11-21T14:02:55.446Z,87.92
2022-11-21T14:05:05.370Z,88.27
2022-11-21T14:07:23.114Z,87.85
2022-11-21T14:09:28.492Z,87.23
2022-11-21T14:11:37.642Z,87.35
2022-11-21T14:13:47.505Z,88.15
2022-11-21T14:15:55.322Z,88.13
2022-11-21T14:17:59.278Z,87.47
2022-11-21T14:20:09.458Z,88.71
2022-11-21T14:22:17.549Z,87.70
2022-11-21T14:24:20.978Z,87.67
2022-11-21T14:26:25.515Z,87.26
2022-11-21T14:28:30.557Z,88.34
2022-11-21T14:30:37.521Z,87.14
2022-11-21T14:32:41.535Z,88.38
2022-11-21T14:34:44.662Z,88.13
2022-11-21T14:36:47.826Z,88.12
2022-11-21T14:39:13.924Z,87.42
2022-11-21T14:41:32.135Z,87.60
2022-11-21T14:43:35.409Z,88.83
2022-11-21T14:45:50.195Z,88.28
2022-11-21T14:47:55.051Z,88.73
2022-11-21T14:50:06.915Z,88.87
2022-11-21T14:52:18.875Z,89.06
2022-11-21T14:54:24.127Z,88.72
2022-11-21T14:56:28.382Z,89.60
2022-11-21T14:58:31.511Z,89.19
2022-11-21T15:02:59.827Z,89.65
2022-11-21T15:05:04.823Z,89.38
2022-11-21T15:07:19.595Z,89.74
2022-11-21T15:10:26.003Z,90.11
2022-11-21T15:11:50.506Z,90.11
2022-11-21T15:14:15.460Z,90.60
2022-11-21T15:16:19.318Z,90.27
2022-11-21T15:18:27.756Z,90.61
2022-11-21T15:20:32.015Z,90.57
2022-11-21T15:22:37.005Z,90.44
2022-11-21T15:24:42.620Z,90.31
2022-11-21T15:26:47.411Z,90.37
2022-11-21T15:28:55.949Z,89.98
2022-11-21T15:31:18.813Z,89.62
2022-11-21T15:33:23.344Z,88.94
2022-11-21T15:35:36.635Z,89.29
2022-11-21T15:37:39.702Z,89.25
2022-11-21T15:39:45.106Z,89.50
2022-11-21T15:41:48.233Z,89.10
2022-11-21T15:43:53.015Z,89.61
2022-11-21T15:46:03.150Z,89.84
2022-11-21T15:48:07.093Z,90.46
2022-11-21T15:50:11.509Z,89.01
2022-11-21T15:52:14.587Z,89.41
2022-11-21T15:54:20.065Z,90.08
2022-11-21T15:56:23.440Z,90.76
2022-11-21T15:58:26.535Z,90.45
2022-11-21T16:00:29.583Z,90.87
2022-11-21T16:02:32.813Z,91.45
2022-11-21T16:04:35.977Z,91.61
2022-11-21T16:06:40.430Z,91.64
2022-11-21T16:08:43.648Z,91.13
2022-11-21T16:10:46.766Z,89.77
2022-11-21T16:12:50.019Z,90.30
2022-11-21T16:14:53.047Z,89.96
2022-11-21T16:16:56.056Z,91.10
2022-11-21T16:18:59.639Z,90.64
2022-11-21T16:21:07.433Z,90.28
2022-11-21T16:23:12.521Z,91.37
2022-11-21T16:25:15.912Z,91.34
2022-11-21T16:27:19.325Z,90.77
2022-11-21T16:29:22.536Z,90.05
2022-11-21T16:31:27.278Z,91.07
2022-11-21T16:33:30.838Z,90.25
2022-11-21T16:35:33.819Z,91.62
2022-11-21T16:37:36.969Z,91.51
2022-11-21T16:39:41.518Z,91.60
2022-11-21T16:41:45.967Z,90.71
2022-11-21T16:43:50.601Z,91.09
2022-11-21T16:45:53.735Z,90.77
2022-11-21T16:47:56.781Z,90.80
2022-11-21T16:49:59.905Z,91.33
2022-11-21T16:52:03.177Z,92.21
2022-11-21T16:54:09.196Z,91.90
2022-11-21T16:56:15.293Z,91.71
2022-11-21T16:58:18.315Z,91.85
2022-11-21T17:00:22.509Z,91.60
2022-11-21T17:02:25.585Z,91.53
2022-11-21T17:04:28.597Z,90.90
2022-11-21T17:06:32.121Z,91.45
2022-11-21T17:08:35.207Z,91.87
2022-11-21T17:10:38.558Z,92.24
2022-11-21T17:12:44.744Z,91.99
2022-11-21T17:14:48.464Z,90.82
2022-11-21T17:16:51.494Z,90.76
2022-11-21T17:18:54.707Z,91.75
2022-11-21T17:20:57.744Z,91.86
2022-11-21T17:23:00.918Z,90.58
2022-11-21T17:25:04.378Z,89.67
2022-11-21T17:27:09.812Z,90.56
2022-11-21T17:29:14.302Z,89.16
2022-11-21T17:31:17.606Z,90.20
2022-11-21T17:33:21.879Z,89.71
2022-11-21T17:35:25.000Z,89.74
2022-11-21T17:37:28.110Z,88.82
2022-11-21T17:39:31.793Z,89.90
2022-11-21T17:41:35.606Z,90.26
2022-11-21T17:43:39.177Z,89.95
2022-11-21T17:45:43.691Z,90.37
2022-11-21T17:47:47.170Z,90.06
2022-11-21T17:49:50.330Z,90.89
2022-11-21T17:51:56.602Z,89.47
2022-11-21T17:54:00.928Z,89.99
2022-11-21T17:56:05.505Z,90.06
2022-11-21T17:58:10.509Z,89.46
2022-11-21T18:00:14.876Z,89.97
2022-11-21T18:02:21.022Z,89.27
2022-11-21T18:04:24.194Z,89.14
2022-11-21T18:06:28.324Z,88.84
2022-11-21T18:08:32.194Z,90.04
2022-11-21T18:10:43.271Z,89.21
2022-11-21T18:12:46.980Z,90.14
2022-11-21T18:14:50.007Z,90.02
2022-11-21T18:16:55.090Z,89.01
2022-11-21T18:18:59.819Z,88.99
2022-11-21T18:21:04.151Z,88.55
2022-11-21T18:23:08.405Z,88.55
2022-11-21T18:25:11.463Z,89.91
2022-11-21T18:27:14.522Z,89.58
2022-11-21T18:29:38.216Z,89.17
2022-11-21T18:31:42.806Z,90.37
2022-11-21T18:33:47.067Z,90.46
2022-11-21T18:35:51.596Z,90.47
2022-11-21T18:37:55.808Z,90.22
2022-11-21T18:39:58.986Z,90.01
2022-11-21T18:42:01.979Z,90.24
2022-11-21T18:44:06.602Z,91.03
2022-11-21T18:46:11.539Z,89.41
2022-11-21T18:48:15.038Z,90.43
2022-11-21T18:50:18.292Z,89.15
2022-11-21T18:52:22.917Z,88.54
2022-11-21T18:54:26.067Z,88.09
2022-11-21T18:56:30.182Z,88.84
2022-11-21T18:58:34.328Z,88.74
2022-11-21T19:00:37.660Z,88.51
2022-11-21T19:02:41.018Z,88.62
2022-11-21T19:04:44.155Z,89.49
2022-11-21T19:06:47.406Z,89.71
2022-11-21T19:08:53.499Z,89.30
2022-11-21T19:10:56.719Z,90.21
2022-11-21T19:12:59.883Z,90.48
2022-11-21T19:15:02.922Z,89.84
2022-11-21T19:17:06.188Z,90.85
2022-11-21T19:21:36.716Z,91.00
2022-11-21T19:23:41.796Z,91.55
2022-11-21T19:25:46.325Z,90.36
2022-11-21T19:27:49.346Z,89.94
2022-11-21T19:29:55.196Z,89.60
2022-11-21T19:31:58.287Z,89.78
2022-11-21T19:34:01.403Z,89.89
2022-11-21T19:36:05.980Z,89.18
2022-11-21T19:38:09.039Z,89.89
2022-11-21T19:40:13.087Z,89.74
2022-11-21T19:42:17.622Z,91.38
2022-11-21T19:44:20.730Z,90.30
2022-11-21T19:46:25.241Z,90.50
2022-11-21T19:48:28.352Z,90.81
2022-11-21T19:50:31.806Z,91.03
2022-11-21T19:52:34.960Z,91.72
2022-11-21T19:54:38.162Z,91.98
2022-11-21T19:56:41.472Z,92.18
2022-11-21T19:58:46.853Z,91.62
2022-11-21T20:00:49.993Z,92.67
2022-11-21T20:02:53.380Z,92.12
2022-11-21T20:04:56.458Z,92.27
2022-11-21T20:07:02.312Z,92.63
2022-11-21T20:09:11.010Z,92.40
2022-11-21T20:11:15.674Z,91.31
2022-11-21T20:13:18.872Z,90.49
2022-11-21T20:15:23.633Z,90.30
2022-11-21T20:17:26.845Z,90.56
2022-11-21T20:19:30.236Z,89.91
2022-11-21T20:21:33.736Z,89.97
2022-11-21T20:23:37.064Z,90.96
2022-11-21T20:25:40.295Z,90.77
2022-11-21T20:27:43.384Z,89.35
2022-11-21T20:29:46.588Z,90.32
2022-11-21T20:31:51.089Z,90.69
2022-11-21T20:33:55.385Z,90.63
2022-11-21T20:36:04.044Z,90.90
2022-11-21T20:38:07.221Z,89.59
2022-11-21T20:40:11.392Z,91.14
2022-11-21T20:42:14.602Z,91.87
2022-11-21T20:45:36.037Z,91.08
2022-11-21T20:46:42.838Z,92.17
2022-11-21T20:48:47.502Z,90.95
2022-11-21T20:55:40.187Z,91.20
2022-11-21T20:57:43.562Z,91.02
2022-11-21T20:59:46.640Z,91.98
2022-11-21T21:01:49.873Z,91.79
2022-11-21T21:03:56.329Z,91.82
2022-11-21T21:06:06.599Z,90.80
2022-11-21T21:08:10.328Z,91.69
2022-11-21T21:10:13.680Z,91.47
2022-11-21T21:12:16.895Z,91.65
2022-11-21T21:14:20.040Z,91.02
2022-11-21T21:16:25.683Z,91.84
2022-11-21T21:18:28.872Z,91.00
2022-11-21T21:20:39.970Z,92.66
2022-11-21T21:22:54.834Z,92.39
2022-11-21T21:24:57.959Z,92.89
2022-11-21T21:27:01.140Z,93.11
2022-11-21T21:29:05.172Z,92.17
2022-11-21T21:31:09.437Z,92.66
2022-11-21T21:33:16.478Z,92.61
2022-11-21T21:35:19.649Z,93.40
2022-11-21T21:37:24.264Z,92.95
2022-11-21T21:39:27.617Z,92.52
2022-11-21T21:41:33.001Z,93.74
2022-11-21T21:43:36.192Z,92.78
2022-11-21T21:45:39.334Z,92.48
2022-11-21T21:47:42.934Z,93.84
2022-11-21T21:49:46.006Z,92.95
2022-11-21T21:51:49.113Z,93.29
2022-11-21T21:53:54.552Z,93.50
2022-11-21T21:55:59.658Z,94.02
2022-11-21T21:58:02.802Z,93.86
2022-11-21T22:00:07.057Z,93.22
2022-11-21T22:02:14.586Z,94.17
2022-11-21T22:04:17.918Z,95.01
2022-11-21T22:06:20.944Z,94.56
2022-11-21T22:08:23.943Z,95.08
2022-11-21T22:10:28.394Z,95.79
2022-11-21T22:12:31.384Z,95.26
2022-11-21T22:14:34.868Z,94.41
2022-11-21T22:16:37.997Z,95.31
2022-11-21T22:18:41.501Z,94.77
2022-11-21T22:20:44.556Z,94.46
2022-11-21T22:22:47.579Z,94.63
2022-11-21T22:24:50.666Z,94.65
2022-11-21T22:26:55.104Z,95.79
2022-11-21T22:28:58.331Z,95.76
2022-11-21T22:31:01.379Z,95.09
2022-11-21T22:33:05.697Z,94.79
2022-11-21T22:35:09.124Z,95.39
2022-11-21T22:37:12.316Z,95.27
2022-11-21T22:39:15.727Z,95.77
2022-11-21T22:41:20.340Z,94.51
2022-11-21T22:43:24.721Z,94.45
2022-11-21T22:45:27.769Z,95.39
2022-11-21T22:47:30.822Z,94.88
2022-11-21T22:49:34.450Z,94.14
2022-11-21T22:51:37.474Z,94.60
2022-11-21T22:53:40.623Z,95.44
2022-11-21T22:55:43.652Z,95.77
2022-11-21T22:57:46.706Z,95.73
2022-11-21T22:59:51.140Z,94.74
2022-11-21T23:01:54.115Z,94.06
2022-11-21T23:03:57.275Z,93.92
2022-11-21T23:06:01.806Z,94.03
2022-11-21T23:08:05.030Z,95.11
2022-11-21T23:10:09.452Z,94.70
2022-11-21T23:12:12.507Z,95.81
2022-11-21T23:14:15.568Z,94.58
2022-11-21T23:16:20.092Z,94.80
2022-11-21T23:18:23.134Z,94.21
2022-11-21T23:20:26.236Z,94.40
2022-11-21T23:22:29.234Z,94.85
2022-11-21T23:24:32.371Z,96.16
2022-11-21T23:26:35.399Z,95.35
2022-11-21T23:28:38.651Z,96.28
2022-11-21T23:30:41.749Z,95.28
2022-11-21T23:32:46.352Z,96.08
2022-11-21T23:34:49.470Z,95.80
2022-11-21T23:36:52.549Z,96.29
2022-11-21T23:38:55.948Z,96.01
2022-11-21T23:40:59.568Z,96.37
2022-11-21T23:43:02.658Z,94.45
2022-11-21T23:45:06.813Z,94.61
2022-11-21T23:47:09.904Z,94.49
2022-11-21T23:49:14.300Z,94.88
2022-11-21T23:51:17.429Z,94.76
2022-11-21T23:53:20.922Z,93.40
2022-11-21T23:55:24.089Z,93.49
2022-11-21T23:57:27.083Z,92.85
2022-11-21T23:59:30.420Z,93.07
